Time;durP1;ratioP1;P1;durP2;ratioP2;P2;SDS_P1;SDS_P2;PMS_P1;PMS_P2;Temp;Humidity;BMP_temperature;BMP_pressure;BME280_temperature;BME280_humidity;BME280_pressure;Samples;Min_cycle;Max_cycle;Signal;HPM_P1;HPM_P2
2021/12/07 00:00:54;;;;;;;16.08;3.45;;;5.60;92.90;;;;;;5042395;28;20017;-65
2021/12/07 00:03:20;;;;;;;15.63;3.00;;;5.70;93.10;;;;;;5048818;28;20048;-65
2021/12/07 00:05:48;;;;;;;20.80;3.45;;;5.70;93.10;;;;;;5049512;28;20044;-65
2021/12/07 00:08:14;;;;;;;16.05;2.88;;;5.80;93.10;;;;;;5048665;28;20056;-65
2021/12/07 00:10:41;;;;;;;17.90;3.35;;;5.90;93.00;;;;;;5055224;28;20032;-65
2021/12/07 00:13:09;;;;;;;18.38;2.97;;;6.00;93.00;;;;;;5046822;28;20466;-65
2021/12/07 00:15:36;;;;;;;26.70;3.47;;;6.10;93.00;;;;;;5045026;28;20404;-65
2021/12/07 00:18:04;;;;;;;17.42;3.30;;;6.20;92.90;;;;;;5048395;28;20039;-65
2021/12/07 00:20:30;;;;;;;21.27;3.22;;;6.20;92.70;;;;;;5051016;28;20559;-65
2021/12/07 00:22:59;;;;;;;24.73;3.00;;;6.10;92.60;;;;;;5045176;28;20465;-65
2021/12/07 00:25:25;;;;;;;21.77;3.22;;;6.10;92.60;;;;;;5044548;28;20103;-64
2021/12/07 00:27:52;;;;;;;21.45;3.10;;;6.00;92.50;;;;;;5049847;28;20053;-65
2021/12/07 00:30:18;;;;;;;21.38;2.90;;;6.00;92.50;;;;;;5047597;28;20029;-65
2021/12/07 00:32:56;;;;;;;24.77;3.88;;;5.90;92.50;;;;;;5046898;28;20025;-65
2021/12/07 00:37:56;;;;;;;19.65;3.08;;;5.80;92.70;;;;;;5044031;28;20063;-65
2021/12/07 00:40:24;;;;;;;24.17;3.83;;;5.80;92.70;;;;;;5043267;28;20056;-65
2021/12/07 00:42:51;;;;;;;25.73;3.13;;;5.80;92.80;;;;;;5043787;28;20107;-65
2021/12/07 00:45:20;;;;;;;22.55;2.92;;;5.70;92.80;;;;;;5035803;28;20047;-65
2021/12/07 00:47:48;;;;;;;18.02;2.80;;;5.70;92.90;;;;;;5048733;28;20041;-64
2021/12/07 00:50:15;;;;;;;23.23;3.22;;;5.70;92.90;;;;;;5036108;28;20044;-65
2021/12/07 00:52:41;;;;;;;26.13;4.35;;;5.70;92.90;;;;;;5043587;28;20021;-65
2021/12/07 00:55:12;;;;;;;17.05;3.10;;;5.70;92.90;;;;;;5042334;28;20025;-65
2021/12/07 00:57:38;;;;;;;22.42;3.40;;;5.60;92.80;;;;;;5045963;28;20028;-66
2021/12/07 01:00:12;;;;;;;24.83;3.10;;;5.50;92.80;;;;;;5048582;28;20419;-65
2021/12/07 01:02:38;;;;;;;15.85;3.10;;;5.50;92.80;;;;;;5048550;28;20399;-65
2021/12/07 01:05:12;;;;;;;21.98;3.60;;;5.40;92.70;;;;;;5044712;28;20028;-65
2021/12/07 01:26:33;;;;;;;13.23;2.70;;;5.00;92.50;;;;;;5046504;28;20027;-65
2021/12/07 01:28:59;;;;;;;17.70;3.00;;;4.90;92.50;;;;;;5043270;28;20048;-65
2021/12/07 01:45:08;;;;;;;18.85;4.10;;;4.60;92.30;;;;;;5006576;28;20116;-65
2021/12/07 01:47:44;;;;;;;14.98;3.53;;;4.50;92.30;;;;;;5005626;28;20061;-65
2021/12/07 01:50:31;;;;;;;19.88;3.67;;;4.50;92.40;;;;;;5005552;28;20057;-65
2021/12/07 02:00:52;;;;;;;14.95;3.30;;;4.40;92.30;;;;;;5006658;28;20056;-65
2021/12/07 02:03:18;;;;;;;20.95;3.63;;;4.40;92.30;;;;;;5007043;28;20512;-65
2021/12/07 02:05:44;;;;;;;12.95;3.63;;;4.30;92.30;;;;;;5006992;28;20068;-65
2021/12/07 02:08:10;;;;;;;16.88;3.60;;;4.30;92.30;;;;;;5007930;28;20026;-65
2021/12/07 02:10:36;;;;;;;12.85;3.58;;;4.30;92.30;;;;;;5029534;28;20504;-65
2021/12/07 02:13:07;;;;;;;17.13;3.70;;;4.20;92.30;;;;;;5040827;28;20832;-65
2021/12/07 02:15:33;;;;;;;12.98;3.13;;;4.20;92.30;;;;;;5038951;28;20027;-65
2021/12/07 02:18:00;;;;;;;17.75;3.28;;;4.20;92.30;;;;;;5034732;28;20070;-65
2021/12/07 02:20:28;;;;;;;19.10;3.83;;;4.20;92.30;;;;;;5049921;28;20071;-65
2021/12/07 02:22:54;;;;;;;13.95;3.65;;;4.10;92.30;;;;;;5043860;28;20060;-65
2021/12/07 02:25:21;;;;;;;14.50;3.38;;;4.10;92.20;;;;;;5051976;28;20395;-65
2021/12/07 02:27:49;;;;;;;22.50;4.13;;;4.10;92.20;;;;;;5048399;28;20025;-65
2021/12/07 02:30:19;;;;;;;14.95;3.28;;;4.10;92.20;;;;;;5035943;28;20124;-65
2021/12/07 02:32:45;;;;;;;12.63;3.13;;;4.00;92.10;;;;;;5051665;28;20055;-65
2021/12/07 02:35:14;;;;;;;14.10;3.85;;;4.00;92.10;;;;;;5051972;28;20049;-65
2021/12/07 02:37:39;;;;;;;16.55;3.10;;;3.90;92.00;;;;;;5048288;28;20033;-65
2021/12/07 02:40:07;;;;;;;10.00;3.10;;;3.90;92.00;;;;;;5044843;28;20037;-64
2021/12/07 02:42:33;;;;;;;14.05;3.03;;;3.80;92.00;;;;;;5038212;28;20021;-65
2021/12/07 02:44:59;;;;;;;11.52;2.92;;;3.80;92.10;;;;;;5040141;28;20033;-65
2021/12/07 02:47:26;;;;;;;13.27;3.20;;;3.80;92.10;;;;;;5048829;28;20032;-65
2021/12/07 02:49:51;;;;;;;16.60;3.88;;;3.70;92.10;;;;;;5048996;28;20045;-65
2021/12/07 02:52:17;;;;;;;22.50;3.97;;;3.70;92.10;;;;;;5049359;28;20032;-65
2021/12/07 02:54:45;;;;;;;20.02;5.75;;;3.70;92.10;;;;;;5047649;28;20028;-65
2021/12/07 02:57:13;;;;;;;22.08;5.35;;;3.70;92.00;;;;;;5048033;28;20030;-65
2021/12/07 02:59:51;;;;;;;17.70;4.78;;;3.60;92.00;;;;;;5048097;28;20033;-65
2021/12/07 03:02:19;;;;;;;19.58;4.65;;;3.70;92.10;;;;;;5051770;28;20492;-65
2021/12/07 03:04:58;;;;;;;17.20;4.93;;;3.70;92.10;;;;;;5039236;28;20083;-64
2021/12/07 03:07:43;;;;;;;22.70;5.35;;;3.60;92.00;;;;;;5048840;28;20036;-65
2021/12/07 03:26:36;;;;;;;20.35;4.97;;;3.50;91.90;;;;;;5048031;28;20067;-65
2021/12/07 03:29:02;;;;;;;24.85;5.07;;;3.40;91.90;;;;;;5047916;28;20072;-65
2021/12/07 03:31:30;;;;;;;15.60;4.07;;;3.40;91.80;;;;;;5040800;28;20469;-64
2021/12/07 03:33:58;;;;;;;14.18;4.70;;;3.40;91.80;;;;;;5041800;28;20025;-65
2021/12/07 03:36:24;;;;;;;13.20;3.65;;;3.40;91.80;;;;;;5036759;28;20021;-65
2021/12/07 03:38:50;;;;;;;15.13;3.80;;;3.40;91.80;;;;;;5049301;28;20041;-65
2021/12/07 03:41:16;;;;;;;14.35;4.32;;;3.40;91.80;;;;;;5051070;28;20507;-65
2021/12/07 03:43:43;;;;;;;16.92;4.05;;;3.40;91.80;;;;;;5045861;28;20472;-65
2021/12/07 03:46:09;;;;;;;12.88;4.20;;;3.40;91.70;;;;;;5049958;28;20071;-65
2021/12/07 03:48:36;;;;;;;21.08;4.60;;;3.40;91.70;;;;;;5050081;28;20072;-65
2021/12/07 03:51:02;;;;;;;12.98;3.60;;;3.30;91.70;;;;;;5048082;28;20023;-65
2021/12/07 03:53:28;;;;;;;13.10;3.72;;;3.30;91.50;;;;;;5048143;28;20037;-65
2021/12/07 03:55:55;;;;;;;13.43;3.60;;;3.30;91.80;;;;;;5036951;28;20033;-65
2021/12/07 03:58:21;;;;;;;10.73;3.60;;;3.20;91.40;;;;;;5047486;28;20029;-65
2021/12/07 04:00:48;;;;;;;18.90;4.43;;;3.20;91.40;;;;;;5049374;28;20095;-64
2021/12/07 04:03:16;;;;;;;16.80;4.68;;;3.20;91.40;;;;;;5048071;28;20114;-65
2021/12/07 04:05:53;;;;;;;12.73;4.15;;;3.20;91.50;;;;;;5036497;28;20392;-65
2021/12/07 04:08:25;;;;;;;15.68;4.82;;;3.20;91.50;;;;;;5046460;28;20033;-65
2021/12/07 04:10:52;;;;;;;13.55;5.07;;;3.20;91.50;;;;;;5047389;28;20496;-65
2021/12/07 04:13:18;;;;;;;16.02;4.72;;;3.20;91.50;;;;;;5047734;28;20025;-65
2021/12/07 04:15:44;;;;;;;12.13;4.05;;;3.20;91.60;;;;;;5046041;28;20040;-65
2021/12/07 04:18:10;;;;;;;22.90;5.05;;;3.20;91.60;;;;;;5045453;28;20028;-65
2021/12/07 04:20:38;;;;;;;15.60;4.68;;;3.20;91.70;;;;;;5042707;28;20037;-65
2021/12/07 04:23:05;;;;;;;14.80;4.45;;;3.20;91.60;;;;;;5045914;28;20063;-65
2021/12/07 04:25:32;;;;;;;13.38;4.70;;;3.20;91.70;;;;;;5047072;28;20041;-64
2021/12/07 04:27:58;;;;;;;13.35;4.80;;;3.30;91.70;;;;;;5048784;28;20029;-65
2021/12/07 04:30:40;;;;;;;12.20;4.97;;;3.30;91.70;;;;;;5048615;28;20064;-65
2021/12/07 04:33:08;;;;;;;19.48;4.88;;;3.30;91.60;;;;;;5043466;28;20489;-65
2021/12/07 04:35:36;;;;;;;14.77;3.95;;;3.30;91.50;;;;;;5034075;28;20033;-65
2021/12/07 04:38:02;;;;;;;16.65;4.63;;;3.30;91.50;;;;;;5045444;28;20025;-65
2021/12/07 04:40:30;;;;;;;12.88;4.70;;;3.30;91.40;;;;;;5046413;28;20115;-65
2021/12/07 04:42:57;;;;;;;14.70;4.47;;;3.30;91.40;;;;;;5047343;28;20040;-64
2021/12/07 04:58:58;;;;;;;18.10;5.75;;;3.50;91.60;;;;;;5036157;28;20424;-65
2021/12/07 05:01:25;;;;;;;21.98;6.80;;;3.60;91.80;;;;;;5038667;28;20532;-65
2021/12/07 05:03:53;;;;;;;20.65;6.72;;;3.60;92.10;;;;;;5042276;28;20035;-65
2021/12/07 05:06:23;;;;;;;21.75;7.10;;;3.70;92.30;;;;;;5043524;28;20065;-65
2021/12/07 05:08:56;;;;;;;19.50;6.38;;;3.70;92.40;;;;;;5043459;28;20037;-64
2021/12/07 05:11:31;;;;;;;21.60;6.75;;;3.80;92.70;;;;;;5047880;28;20033;-65
2021/12/07 05:14:16;;;;;;;15.68;5.22;;;3.90;93.00;;;;;;5047031;28;20079;-65
2021/12/07 05:24:53;;;;;;;23.90;11.95;;;4.30;94.10;;;;;;5043623;28;20048;-65
2021/12/07 05:38:19;;;;;;;19.83;4.47;;;4.80;94.30;;;;;;5048198;28;20051;-66
2021/12/07 05:40:45;;;;;;;14.68;4.43;;;4.90;94.30;;;;;;5048858;28;20033;-64
2021/12/07 05:43:11;;;;;;;12.35;4.60;;;4.90;94.20;;;;;;5048854;28;20033;-65
2021/12/07 05:45:38;;;;;;;17.50;5.28;;;5.00;94.20;;;;;;5053119;28;20028;-64
2021/12/07 05:48:05;;;;;;;17.67;4.60;;;5.00;94.20;;;;;;5046644;28;20057;-64
2021/12/07 05:50:34;;;;;;;17.13;3.58;;;5.10;94.10;;;;;;5043883;28;20063;-65
2021/12/07 05:53:01;;;;;;;17.05;4.03;;;5.10;94.00;;;;;;5041416;28;20033;-64
2021/12/07 05:55:27;;;;;;;14.80;3.67;;;5.10;93.90;;;;;;5044926;28;20403;-63
2021/12/07 05:57:55;;;;;;;14.50;3.10;;;5.20;93.80;;;;;;5050275;28;20047;-65
2021/12/07 06:00:27;;;;;;;13.02;3.13;;;5.20;93.80;;;;;;5050313;28;20035;-65
2021/12/07 06:03:06;;;;;;;17.23;3.50;;;5.20;93.90;;;;;;5058777;28;20029;-65
2021/12/07 06:05:35;;;;;;;11.27;4.53;;;5.30;93.90;;;;;;5048672;28;20028;-65
2021/12/07 06:08:01;;;;;;;19.13;7.63;;;5.40;93.90;;;;;;5043611;28;20396;-65
2021/12/07 06:10:27;;;;;;;21.45;9.52;;;5.40;93.90;;;;;;5039860;28;20084;-65
2021/12/07 06:12:53;;;;;;;19.45;7.78;;;5.50;93.80;;;;;;5046870;28;20033;-65
2021/12/07 06:15:22;;;;;;;21.52;9.23;;;5.50;93.70;;;;;;5049622;28;20549;-65
2021/12/07 06:17:49;;;;;;;23.17;7.97;;;5.50;93.60;;;;;;5053212;28;20046;-65
2021/12/07 06:20:16;;;;;;;18.60;4.85;;;5.60;93.50;;;;;;5050669;28;20029;-65
2021/12/07 06:22:41;;;;;;;16.25;3.95;;;5.60;93.50;;;;;;5047370;28;20029;-65
2021/12/07 06:25:08;;;;;;;13.20;3.05;;;5.60;93.40;;;;;;5045474;28;20040;-64
2021/12/07 06:27:34;;;;;;;16.17;3.17;;;5.60;93.40;;;;;;5045381;28;20028;-65
2021/12/07 06:30:00;;;;;;;19.42;3.25;;;5.60;93.30;;;;;;5047145;28;20041;-64
2021/12/07 06:32:26;;;;;;;11.57;2.78;;;5.60;93.30;;;;;;5045491;28;20116;-64
2021/12/07 06:34:52;;;;;;;16.08;3.58;;;5.60;93.20;;;;;;5038943;28;20025;-64
2021/12/07 06:37:18;;;;;;;14.73;3.08;;;5.60;93.20;;;;;;5042807;28;20025;-64
2021/12/07 06:39:45;;;;;;;15.50;3.88;;;5.60;93.10;;;;;;5045856;28;20051;-64
2021/12/07 06:42:11;;;;;;;22.33;4.78;;;5.60;93.20;;;;;;5045388;28;20101;-64
2021/12/07 06:44:37;;;;;;;11.75;3.40;;;5.50;93.20;;;;;;5048136;28;20037;-64
2021/12/07 06:47:04;;;;;;;16.35;4.00;;;5.50;93.20;;;;;;5046952;28;20407;-65
2021/12/07 06:49:29;;;;;;;16.58;4.00;;;5.50;93.20;;;;;;5045414;28;20049;-65
2021/12/07 06:51:55;;;;;;;15.43;4.00;;;5.50;93.30;;;;;;5048552;28;20027;-65
2021/12/07 06:54:21;;;;;;;16.60;4.55;;;5.40;93.30;;;;;;5045501;28;20065;-64
2021/12/07 06:56:47;;;;;;;18.02;4.15;;;5.40;93.30;;;;;;5032731;28;20036;-63
2021/12/07 06:59:13;;;;;;;14.85;4.60;;;5.50;93.40;;;;;;5049424;28;20561;-64
2021/12/07 07:01:39;;;;;;;12.23;3.92;;;5.40;93.30;;;;;;5048700;28;20492;-64
2021/12/07 07:04:07;;;;;;;13.23;4.22;;;5.40;93.30;;;;;;5044534;28;20404;-63
2021/12/07 07:06:35;;;;;;;18.10;3.55;;;5.50;93.40;;;;;;5037426;28;20542;-64
2021/12/07 07:09:00;;;;;;;19.75;3.53;;;5.50;93.40;;;;;;5050468;28;20043;-63
2021/12/07 07:11:26;;;;;;;17.92;3.13;;;5.50;93.30;;;;;;5048740;28;20112;-63
2021/12/07 07:13:52;;;;;;;15.88;2.88;;;5.50;93.40;;;;;;5037976;28;20424;-63
2021/12/07 07:16:18;;;;;;;18.98;3.88;;;5.50;93.40;;;;;;5037909;28;20030;-64
2021/12/07 07:18:43;;;;;;;11.27;2.47;;;5.50;93.40;;;;;;5037512;28;20430;-63
2021/12/07 07:21:09;;;;;;;18.92;3.17;;;5.60;93.60;;;;;;5034328;28;20483;-63
2021/12/07 07:23:38;;;;;;;16.58;2.60;;;5.70;93.60;;;;;;5035490;28;20047;-63
2021/12/07 07:26:04;;;;;;;11.50;2.10;;;5.80;93.70;;;;;;5047800;28;20556;-64
2021/12/07 07:28:33;;;;;;;17.33;2.60;;;5.90;93.60;;;;;;5040494;28;20436;-63
2021/12/07 07:31:00;;;;;;;13.00;2.58;;;6.00;93.60;;;;;;5041977;28;20053;-63
2021/12/07 07:33:26;;;;;;;11.77;1.92;;;6.00;93.40;;;;;;5036267;28;20073;-63
2021/12/07 07:35:52;;;;;;;15.35;2.00;;;6.10;93.20;;;;;;5034726;28;20124;-63
2021/12/07 07:38:18;;;;;;;9.65;1.55;;;6.20;93.20;;;;;;5048342;28;20033;-63
2021/12/07 07:40:46;;;;;;;16.95;2.67;;;6.20;93.20;;;;;;5038854;28;20448;-63
2021/12/07 07:43:15;;;;;;;12.02;2.00;;;6.30;93.20;;;;;;5036898;28;20141;-63
2021/12/07 07:45:42;;;;;;;15.07;2.10;;;6.30;93.20;;;;;;5046610;28;20033;-64
2021/12/07 07:48:08;;;;;;;12.85;2.72;;;6.30;93.20;;;;;;5048710;28;20057;-64
2021/12/07 07:50:34;;;;;;;15.00;2.40;;;6.40;93.20;;;;;;5044235;28;20037;-64
2021/12/07 07:52:59;;;;;;;12.60;2.03;;;6.40;93.10;;;;;;5050797;28;20061;-64
2021/12/07 07:55:25;;;;;;;10.63;2.03;;;6.50;93.20;;;;;;5048390;28;20056;-64
2021/12/07 07:57:51;;;;;;;11.82;1.92;;;6.50;93.20;;;;;;5053778;28;20017;-64
2021/12/07 08:00:21;;;;;;;15.80;3.58;;;6.50;93.20;;;;;;5049250;28;20096;-63
2021/12/07 08:02:48;;;;;;;10.40;2.00;;;6.60;93.30;;;;;;5046755;28;20036;-63
2021/12/07 08:05:16;;;;;;;14.93;2.90;;;6.60;93.40;;;;;;5050669;28;20025;-63
2021/12/07 08:07:47;;;;;;;18.50;2.13;;;6.60;93.40;;;;;;5038261;28;20627;-64
2021/12/07 08:10:27;;;;;;;16.92;2.28;;;6.60;93.50;;;;;;5043367;28;20032;-63
2021/12/07 08:12:58;;;;;;;15.07;2.33;;;6.70;93.60;;;;;;5046828;28;20048;-63
2021/12/07 08:15:26;;;;;;;18.40;2.58;;;6.70;93.70;;;;;;5048279;28;20029;-64
2021/12/07 08:17:51;;;;;;;18.75;2.40;;;6.80;93.70;;;;;;5050279;28;20163;-64
2021/12/07 08:20:19;;;;;;;14.73;2.13;;;6.80;93.70;;;;;;5036745;28;20104;-64
2021/12/07 08:22:45;;;;;;;20.30;2.47;;;6.80;93.70;;;;;;5045834;28;20020;-64
2021/12/07 08:25:14;;;;;;;13.73;2.40;;;6.90;93.60;;;;;;5044523;28;20054;-64
2021/12/07 08:27:40;;;;;;;17.58;2.92;;;6.90;93.70;;;;;;5046805;28;20517;-64
2021/12/07 08:30:09;;;;;;;13.35;2.55;;;6.90;93.70;;;;;;5048529;28;20072;-63
2021/12/07 08:32:35;;;;;;;17.25;3.22;;;7.00;93.70;;;;;;5037456;28;20146;-64
2021/12/07 08:35:01;;;;;;;11.60;2.38;;;7.00;93.70;;;;;;5045590;28;20063;-63
2021/12/07 08:37:27;;;;;;;20.02;2.42;;;7.10;93.70;;;;;;5048642;28;20029;-64
2021/12/07 08:39:53;;;;;;;16.75;2.70;;;7.10;93.70;;;;;;5046822;28;20028;-64
2021/12/07 08:42:19;;;;;;;14.50;2.47;;;7.20;93.70;;;;;;5048480;28;20032;-64
2021/12/07 08:44:46;;;;;;;16.58;2.90;;;7.20;93.60;;;;;;5033719;28;20096;-64
2021/12/07 08:47:12;;;;;;;15.30;2.40;;;7.20;93.60;;;;;;5047055;28;20506;-64
2021/12/07 08:49:38;;;;;;;11.05;2.75;;;7.30;93.60;;;;;;5040005;28;20049;-64
2021/12/07 08:52:04;;;;;;;20.23;2.88;;;7.40;93.70;;;;;;5041852;28;20033;-64
2021/12/07 08:59:52;;;;;;;17.52;3.38;;;7.50;94.00;;;;;;5049273;28;20043;-64
2021/12/07 09:02:24;;;;;;;27.23;4.55;;;7.60;94.50;;;;;;5046745;28;20035;-63
2021/12/07 09:04:53;;;;;;;26.10;4.72;;;7.70;94.90;;;;;;5044207;28;20078;-63
2021/12/07 09:07:22;;;;;;;26.75;5.57;;;7.80;95.20;;;;;;5040827;28;20037;-63
2021/12/07 09:09:48;;;;;;;19.67;4.47;;;8.00;95.30;;;;;;5041349;28;20035;-63
2021/12/07 09:12:16;;;;;;;29.35;5.25;;;8.10;95.30;;;;;;5046483;28;20033;-63
2021/12/07 09:14:43;;;;;;;26.40;5.55;;;8.20;95.20;;;;;;5044617;28;20060;-64
2021/12/07 09:17:11;;;;;;;19.35;5.07;;;8.30;95.20;;;;;;5046177;28;20021;-64
2021/12/07 09:19:38;;;;;;;23.48;5.28;;;8.40;95.10;;;;;;5037728;28;20042;-63
2021/12/07 09:22:05;;;;;;;23.27;4.97;;;8.50;95.00;;;;;;5056810;28;20124;-63
2021/12/07 09:24:31;;;;;;;18.02;5.20;;;8.50;94.90;;;;;;5037617;28;20068;-63
2021/12/07 09:26:58;;;;;;;25.30;5.35;;;8.60;94.80;;;;;;5047141;28;20022;-63
2021/12/07 09:29:23;;;;;;;18.25;4.82;;;8.60;94.70;;;;;;5041497;28;20565;-64
2021/12/07 09:31:50;;;;;;;26.00;4.78;;;8.70;94.60;;;;;;5047637;28;20025;-63
2021/12/07 09:34:17;;;;;;;25.67;4.70;;;8.80;94.50;;;;;;5045701;28;20045;-65
2021/12/07 09:36:44;;;;;;;21.75;3.95;;;8.80;94.40;;;;;;5045301;28;20074;-64
2021/12/07 09:39:12;;;;;;;27.60;4.10;;;8.80;94.30;;;;;;5032406;28;20029;-65
2021/12/07 09:41:39;;;;;;;15.93;3.58;;;8.90;94.20;;;;;;5047378;28;20507;-64
2021/12/07 09:44:06;;;;;;;16.98;4.03;;;8.90;94.10;;;;;;5044978;28;20439;-64
2021/12/07 09:46:32;;;;;;;16.65;3.70;;;9.00;94.00;;;;;;5038195;28;20053;-64
2021/12/07 09:48:58;;;;;;;16.00;4.07;;;9.00;93.90;;;;;;5038745;28;20046;-64
2021/12/07 09:51:27;;;;;;;25.02;4.82;;;9.10;93.80;;;;;;5044121;28;20025;-64
2021/12/07 09:53:55;;;;;;;15.35;4.72;;;9.10;93.70;;;;;;5047327;28;20036;-65
2021/12/07 09:56:26;;;;;;;20.13;5.60;;;9.10;93.70;;;;;;5048801;28;20052;-64
2021/12/07 09:58:53;;;;;;;20.08;6.30;;;9.20;93.60;;;;;;5042285;28;20036;-63
2021/12/07 10:01:20;;;;;;;24.90;5.10;;;9.20;93.60;;;;;;5046484;28;20040;-65
2021/12/07 10:03:46;;;;;;;23.55;6.15;;;9.20;93.60;;;;;;5041989;28;20052;-65
2021/12/07 10:06:13;;;;;;;26.45;6.20;;;9.30;93.60;;;;;;5048002;28;20021;-64
2021/12/07 10:08:40;;;;;;;19.35;5.97;;;9.30;93.50;;;;;;5045575;28;20025;-64
2021/12/07 10:11:09;;;;;;;16.02;5.10;;;9.30;93.50;;;;;;5043311;28;20029;-64
2021/12/07 10:13:37;;;;;;;24.20;6.25;;;9.40;93.50;;;;;;5044656;28;20033;-64
2021/12/07 10:16:05;;;;;;;26.15;5.93;;;9.40;93.50;;;;;;5047128;28;20025;-64
2021/12/07 10:18:35;;;;;;;20.05;4.82;;;9.40;93.60;;;;;;5046071;28;20033;-64
2021/12/07 10:21:10;;;;;;;23.15;5.40;;;9.40;93.60;;;;;;5046898;28;20036;-64
2021/12/07 10:23:42;;;;;;;22.80;5.07;;;9.50;93.60;;;;;;5045314;28;20070;-64
2021/12/07 10:26:25;;;;;;;22.65;5.30;;;9.50;93.60;;;;;;5049171;28;20047;-63
2021/12/07 10:29:11;;;;;;;23.25;5.45;;;9.60;93.60;;;;;;5036852;28;20025;-64
2021/12/07 10:31:52;;;;;;;19.55;4.97;;;9.60;93.60;;;;;;5042044;28;20078;-64
2021/12/07 10:34:23;;;;;;;22.00;5.70;;;9.60;93.60;;;;;;5050599;28;20051;-64
2021/12/07 10:36:48;;;;;;;23.10;4.68;;;9.70;93.60;;;;;;5049142;28;20285;-63
2021/12/07 10:39:17;;;;;;;23.63;4.68;;;9.70;93.60;;;;;;5049541;28;20109;-63
2021/12/07 10:41:59;;;;;;;25.98;5.55;;;9.80;93.50;;;;;;5051679;28;20032;-64
2021/12/07 10:44:30;;;;;;;25.83;4.28;;;9.80;93.40;;;;;;5044220;28;20024;-63
2021/12/07 10:47:07;;;;;;;22.95;4.82;;;9.90;93.40;;;;;;5049727;28;20032;-65
2021/12/07 10:49:55;;;;;;;29.35;4.32;;;9.90;93.30;;;;;;5045981;28;20052;-64
2021/12/07 10:52:24;;;;;;;17.90;3.47;;;10.00;93.20;;;;;;5061686;28;20064;-65
2021/12/07 10:55:00;;;;;;;22.27;5.00;;;10.10;93.10;;;;;;5056460;28;20025;-65
2021/12/07 10:57:38;;;;;;;24.00;4.45;;;10.10;92.90;;;;;;5058348;28;20079;-64
2021/12/07 11:00:22;;;;;;;26.95;4.32;;;10.30;92.90;;;;;;5050235;28;20037;-64
2021/12/07 11:02:53;;;;;;;23.98;4.22;;;10.30;92.70;;;;;;5051188;28;20036;-64
2021/12/07 11:05:32;;;;;;;27.17;5.50;;;10.30;92.70;;;;;;5051951;28;20488;-64
2021/12/07 11:08:00;;;;;;;24.02;5.18;;;10.40;92.60;;;;;;5046796;28;20107;-64
2021/12/07 11:10:30;;;;;;;20.75;4.88;;;10.40;92.50;;;;;;5050398;28;20135;-64
2021/12/07 11:13:23;;;;;;;27.43;5.27;;;10.40;92.40;;;;;;5049772;28;20047;-64
2021/12/07 11:15:58;;;;;;;14.88;3.70;;;10.40;92.40;;;;;;5048353;28;20279;-63
2021/12/07 11:18:29;;;;;;;27.05;5.07;;;10.50;92.40;;;;;;5048320;28;20025;-64
2021/12/07 11:20:59;;;;;;;26.17;5.50;;;10.40;92.40;;;;;;5033670;28;20032;-63
2021/12/07 11:23:34;;;;;;;17.70;3.60;;;10.40;92.60;;;;;;5037765;28;20444;-64
2021/12/07 11:31:36;;;;;;;31.58;4.25;;;10.40;93.00;;;;;;5041243;28;20049;-64
2021/12/07 11:34:13;;;;;;;27.45;4.82;;;10.40;93.00;;;;;;5037598;28;20029;-64
2021/12/07 11:36:48;;;;;;;30.02;5.00;;;10.40;93.10;;;;;;5052200;28;20490;-64
2021/12/07 11:39:31;;;;;;;14.77;3.40;;;10.40;93.10;;;;;;5034699;28;20494;-64
2021/12/07 11:42:12;;;;;;;24.48;3.63;;;10.40;93.20;;;;;;5042202;28;20051;-64
2021/12/07 11:45:03;;;;;;;16.92;3.05;;;10.40;93.30;;;;;;5048050;28;20095;-64
2021/12/07 11:47:33;;;;;;;17.30;3.25;;;10.40;93.40;;;;;;5048665;28;20443;-64
2021/12/07 11:50:21;;;;;;;21.03;4.13;;;10.40;93.50;;;;;;5037580;28;20065;-64
2021/12/07 11:52:52;;;;;;;24.60;4.80;;;10.30;93.50;;;;;;5036815;28;20626;-63
2021/12/07 11:55:19;;;;;;;24.15;4.47;;;10.30;93.70;;;;;;5036897;28;20030;-64
2021/12/07 11:57:46;;;;;;;19.63;3.85;;;10.30;93.70;;;;;;5036689;28;20044;-64
2021/12/07 12:00:17;;;;;;;17.05;3.10;;;10.30;93.70;;;;;;5039346;28;20022;-64
2021/12/07 12:02:43;;;;;;;18.73;4.32;;;10.30;93.80;;;;;;5049897;28;20111;-64
2021/12/07 12:05:09;;;;;;;27.90;6.65;;;10.30;93.80;;;;;;5036586;28;20072;-64
2021/12/07 12:07:36;;;;;;;21.85;3.63;;;10.30;93.80;;;;;;5037035;28;20059;-64
2021/12/07 12:10:03;;;;;;;14.18;2.95;;;10.30;94.30;;;;;;5036613;28;20112;-64
2021/12/07 12:12:40;;;;;;;13.68;3.67;;;10.30;94.00;;;;;;5035901;28;20032;-64
2021/12/07 12:15:18;;;;;;;16.10;2.92;;;10.30;94.00;;;;;;5038594;28;20043;-64
2021/12/07 12:18:12;;;;;;;22.33;4.03;;;10.30;94.10;;;;;;5034708;28;20092;-65
2021/12/07 12:21:15;;;;;;;19.75;4.90;;;10.30;94.10;;;;;;5030884;28;20060;-65
2021/12/07 12:24:11;;;;;;;14.85;4.07;;;10.30;94.00;;;;;;5033987;28;20069;-64
2021/12/07 12:26:38;;;;;;;13.30;4.10;;;10.30;93.90;;;;;;5048596;28;20041;-65
2021/12/07 12:29:31;;;;;;;15.27;3.10;;;10.30;94.00;;;;;;5049925;28;20163;-65
2021/12/07 12:31:58;;;;;;;15.93;4.07;;;10.30;93.90;;;;;;5035395;28;20504;-65
2021/12/07 12:34:31;;;;;;;15.93;3.78;;;10.30;93.90;;;;;;5036553;28;20025;-65
2021/12/07 12:37:04;;;;;;;12.52;3.55;;;10.30;93.90;;;;;;5036426;28;20025;-65
2021/12/07 12:39:41;;;;;;;18.10;4.13;;;10.30;93.90;;;;;;5035578;28;20025;-64
2021/12/07 12:42:07;;;;;;;16.30;3.72;;;10.30;94.10;;;;;;5042374;28;20033;-65
2021/12/07 12:44:35;;;;;;;15.95;2.75;;;10.20;94.10;;;;;;5050296;28;20025;-64
2021/12/07 12:47:01;;;;;;;13.52;3.85;;;10.20;94.10;;;;;;5050326;28;20124;-64
2021/12/07 12:49:39;;;;;;;16.08;5.07;;;10.20;94.00;;;;;;5039777;28;20037;-64
2021/12/07 12:52:05;;;;;;;9.82;2.38;;;10.30;93.60;;;;;;5039121;28;20066;-65
2021/12/07 12:54:39;;;;;;;18.70;4.28;;;10.30;93.70;;;;;;5047802;28;20066;-64
2021/12/07 12:57:15;;;;;;;17.88;5.50;;;10.30;93.80;;;;;;5046935;28;20033;-64
2021/12/07 12:59:43;;;;;;;17.88;5.22;;;10.30;93.60;;;;;;5048088;28;20033;-64
2021/12/07 13:02:10;;;;;;;15.65;4.20;;;10.30;93.50;;;;;;5035737;28;20492;-64
2021/12/07 13:04:36;;;;;;;18.23;4.80;;;10.30;93.60;;;;;;5043354;28;20542;-64
2021/12/07 13:09:43;;;;;;;14.95;6.35;;;10.30;93.30;;;;;;5048054;28;20036;-64
2021/12/07 13:12:18;;;;;;;15.80;4.65;;;10.30;93.30;;;;;;5031656;28;20018;-64
2021/12/07 13:14:50;;;;;;;12.52;3.50;;;10.30;93.30;;;;;;5039315;28;20529;-64
2021/12/07 13:17:30;;;;;;;14.10;3.13;;;10.20;93.30;;;;;;5037636;28;20100;-65
2021/12/07 13:20:20;;;;;;;10.75;2.63;;;10.20;93.60;;;;;;5045359;28;20051;-65
2021/12/07 13:23:09;;;;;;;11.85;3.53;;;10.10;93.60;;;;;;5043193;28;20119;-65
2021/12/07 13:25:40;;;;;;;15.52;3.95;;;10.10;93.80;;;;;;5042885;28;20040;-65
2021/12/07 13:28:17;;;;;;;12.25;3.88;;;10.10;93.90;;;;;;5046219;28;20377;-65
2021/12/07 13:30:56;;;;;;;14.30;3.85;;;10.00;94.00;;;;;;5046312;28;20041;-65
2021/12/07 13:33:40;;;;;;;13.82;5.43;;;10.00;94.10;;;;;;5033417;28;20044;-65
2021/12/07 13:36:28;;;;;;;9.57;4.72;;;9.90;94.20;;;;;;5044803;28;20476;-65
2021/12/07 13:38:58;;;;;;;7.80;3.28;;;9.90;94.40;;;;;;5043574;28;20025;-65
2021/12/07 13:41:24;;;;;;;7.90;2.55;;;9.90;94.40;;;;;;5049598;28;20492;-65
2021/12/07 13:43:51;;;;;;;7.72;2.13;;;9.90;94.50;;;;;;5045327;28;20063;-65
2021/12/07 13:46:21;;;;;;;6.70;1.55;;;9.80;94.40;;;;;;5043321;28;20067;-65
2021/12/07 13:48:49;;;;;;;7.07;2.47;;;9.90;94.40;;;;;;5059976;28;20045;-64
2021/12/07 13:51:17;;;;;;;11.50;2.70;;;9.90;94.20;;;;;;5040562;28;20481;-65
2021/12/07 13:53:44;;;;;;;7.30;2.47;;;9.90;94.50;;;;;;5040059;28;20025;-65
2021/12/07 13:56:10;;;;;;;6.03;1.52;;;9.90;94.50;;;;;;5033952;28;20109;-65
2021/12/07 13:58:59;;;;;;;7.13;1.25;;;10.00;94.20;;;;;;5041869;28;20025;-65
2021/12/07 14:01:28;;;;;;;2.97;1.15;;;10.00;94.20;;;;;;5040513;28;20113;-65
2021/12/07 14:03:56;;;;;;;4.30;1.40;;;9.90;94.20;;;;;;5034927;28;20036;-65
2021/12/07 14:06:22;;;;;;;6.00;1.63;;;9.90;94.10;;;;;;5046497;28;20017;-65
2021/12/07 14:08:49;;;;;;;6.57;1.38;;;10.00;94.20;;;;;;5050457;28;20040;-64
2021/12/07 14:11:17;;;;;;;3.67;1.33;;;10.00;94.10;;;;;;5053283;28;20037;-65
2021/12/07 14:13:47;;;;;;;5.30;1.60;;;10.10;93.90;;;;;;5053915;28;20597;-65
2021/12/07 14:16:16;;;;;;;8.03;2.07;;;10.10;93.80;;;;;;5049271;28;20029;-65
2021/12/07 14:18:43;;;;;;;4.50;1.70;;;10.20;93.80;;;;;;5055627;28;20451;-65
2021/12/07 14:21:09;;;;;;;4.22;1.65;;;10.20;93.60;;;;;;5037387;28;20029;-65
2021/12/07 14:23:38;;;;;;;8.27;2.97;;;10.20;93.50;;;;;;5054982;28;20074;-65
2021/12/07 14:26:10;;;;;;;6.55;3.42;;;10.20;93.60;;;;;;5048214;28;20075;-65
2021/12/07 14:28:41;;;;;;;9.90;6.03;;;10.20;93.80;;;;;;5044928;28;20500;-65
2021/12/07 14:31:19;;;;;;;7.78;4.22;;;10.10;93.70;;;;;;5049360;28;20045;-65
2021/12/07 14:33:48;;;;;;;7.47;3.03;;;10.10;93.70;;;;;;5048720;28;20112;-64
2021/12/07 14:36:20;;;;;;;6.07;2.13;;;10.10;93.70;;;;;;5049476;28;20025;-64
2021/12/07 14:38:48;;;;;;;19.63;8.52;;;10.20;93.80;;;;;;5036363;28;20083;-64
2021/12/07 14:41:17;;;;;;;12.63;5.88;;;10.20;93.70;;;;;;5050813;28;20021;-65
2021/12/07 14:43:43;;;;;;;7.75;3.70;;;10.20;93.60;;;;;;5039806;28;20029;-65